Time;durP1;ratioP1;P1;durP2;ratioP2;P2;SDS_P1;SDS_P2;PMS_P1;PMS_P2;Temp;Humidity;BMP_temperature;BMP_pressure;BME280_temperature;BME280_humidity;BME280_pressure;Samples;Min_cycle;Max_cycle;Signal;HPM_P1;HPM_P2
2023/04/07 00:01:51;;;;;;;3.50;1.85;;;19.30;52.30;;;;;;5056611;28;20029;-53
2023/04/07 00:04:16;;;;;;;3.22;1.85;;;19.30;52.30;;;;;;5056914;28;20470;-53
2023/04/07 00:06:42;;;;;;;2.95;1.90;;;19.30;52.20;;;;;;5046204;28;20268;-54
2023/04/07 00:09:09;;;;;;;2.85;2.13;;;19.20;52.20;;;;;;5044442;28;20033;-54
2023/04/07 00:11:35;;;;;;;3.08;2.20;;;19.30;52.30;;;;;;5035075;28;20445;-52
2023/04/07 00:14:00;;;;;;;2.05;1.85;;;19.20;52.10;;;;;;5044048;28;20033;-52
2023/04/07 00:16:26;;;;;;;2.75;2.15;;;19.20;52.20;;;;;;5032984;28;20160;-50
2023/04/07 00:18:51;;;;;;;2.13;1.80;;;19.20;52.30;;;;;;5024943;28;20112;-56
2023/04/07 00:21:17;;;;;;;2.15;1.80;;;19.20;52.10;;;;;;5032792;28;20049;-53
2023/04/07 00:23:42;;;;;;;3.38;2.03;;;19.20;52.10;;;;;;5042499;28;20099;-53
2023/04/07 00:26:08;;;;;;;2.10;1.90;;;19.20;52.20;;;;;;5048475;28;20515;-55
2023/04/07 00:28:34;;;;;;;2.33;2.00;;;19.20;52.10;;;;;;5032234;28;20033;-54
2023/04/07 00:30:59;;;;;;;2.30;2.10;;;19.20;52.10;;;;;;5036669;28;20029;-55
2023/04/07 00:33:25;;;;;;;2.33;2.13;;;19.10;52.10;;;;;;5041476;28;20090;-53
2023/04/07 00:35:50;;;;;;;3.08;1.80;;;19.10;52.30;;;;;;5055689;28;20034;-55
2023/04/07 00:38:16;;;;;;;2.63;1.92;;;19.10;52.10;;;;;;5048296;28;20033;-54
2023/04/07 00:40:41;;;;;;;2.05;1.60;;;19.10;52.10;;;;;;5037598;28;20033;-55
2023/04/07 00:43:07;;;;;;;3.50;2.15;;;19.10;52.10;;;;;;5037824;28;20040;-50
2023/04/07 00:45:32;;;;;;;3.83;2.17;;;19.20;52.20;;;;;;5048389;28;20486;-50
2023/04/07 00:47:59;;;;;;;2.45;1.67;;;19.10;52.10;;;;;;5044143;28;20261;-53
2023/04/07 00:50:24;;;;;;;4.35;2.40;;;19.10;52.10;;;;;;5034704;28;20486;-52
2023/04/07 00:52:50;;;;;;;2.55;2.35;;;19.10;52.10;;;;;;5042782;28;20036;-54
2023/04/07 00:55:16;;;;;;;2.78;2.35;;;19.10;52.10;;;;;;5047041;28;20040;-53
2023/04/07 00:57:41;;;;;;;3.17;2.20;;;19.10;52.10;;;;;;5041451;28;20069;-51
2023/04/07 01:00:08;;;;;;;2.65;2.25;;;19.10;52.20;;;;;;5049120;28;20497;-52
2023/04/07 01:02:51;;;;;;;2.50;1.92;;;19.20;52.10;;;;;;5058769;28;20032;-53
2023/04/07 01:05:23;;;;;;;2.58;2.20;;;19.10;52.10;;;;;;5058303;28;20044;-53
2023/04/07 01:08:09;;;;;;;2.35;2.03;;;19.10;52.10;;;;;;5053348;28;20025;-54
2023/04/07 01:11:00;;;;;;;3.17;2.30;;;19.10;52.00;;;;;;5056494;28;20044;-52
2023/04/07 01:13:56;;;;;;;2.80;2.53;;;19.10;52.10;;;;;;5055740;28;20029;-55
2023/04/07 01:16:36;;;;;;;2.58;2.13;;;19.10;52.00;;;;;;5045832;28;20035;-55
2023/04/07 01:19:12;;;;;;;3.20;2.40;;;19.10;52.00;;;;;;5052912;28;20045;-54
2023/04/07 01:21:41;;;;;;;2.95;2.50;;;19.10;52.10;;;;;;5055163;28;20561;-55
2023/04/07 01:24:31;;;;;;;2.45;2.10;;;19.10;51.90;;;;;;5054926;28;20818;-52
2023/04/07 01:27:17;;;;;;;2.10;1.90;;;19.10;52.10;;;;;;5048963;28;20064;-52
2023/04/07 01:29:47;;;;;;;2.47;2.25;;;19.10;51.90;;;;;;5039385;28;20037;-54
2023/04/07 01:32:14;;;;;;;2.40;2.20;;;19.10;51.90;;;;;;5036812;28;20125;-50
2023/04/07 01:34:41;;;;;;;2.58;1.95;;;19.10;51.90;;;;;;5038127;28;20069;-53
2023/04/07 01:37:07;;;;;;;3.03;2.42;;;19.10;52.10;;;;;;5036000;28;20071;-51
2023/04/07 01:39:33;;;;;;;2.85;2.55;;;19.10;52.10;;;;;;5036668;28;20032;-54
2023/04/07 01:42:01;;;;;;;2.45;1.90;;;19.10;51.90;;;;;;5052324;28;20811;-54
2023/04/07 01:44:27;;;;;;;3.03;1.88;;;19.10;51.90;;;;;;5051646;28;20037;-53
2023/04/07 01:46:54;;;;;;;2.47;2.10;;;19.10;51.90;;;;;;5053397;28;20056;-53
2023/04/07 01:49:20;;;;;;;3.45;2.30;;;19.10;51.90;;;;;;5052495;28;20029;-52
2023/04/07 01:51:49;;;;;;;3.88;2.13;;;19.10;51.90;;;;;;5052166;28;20301;-53
2023/04/07 01:54:16;;;;;;;2.65;1.98;;;19.10;51.80;;;;;;5055903;28;20036;-54
2023/04/07 01:56:43;;;;;;;3.17;2.00;;;19.10;51.90;;;;;;5052859;28;20032;-54
2023/04/07 01:59:08;;;;;;;2.63;2.00;;;19.10;51.80;;;;;;5054173;28;22106;-51
2023/04/07 02:01:34;;;;;;;2.83;2.25;;;19.10;51.80;;;;;;5055587;28;20049;-52
2023/04/07 02:04:18;;;;;;;2.75;2.30;;;19.10;52.00;;;;;;5041027;28;20033;-55
2023/04/07 02:06:52;;;;;;;2.78;2.30;;;19.00;51.90;;;;;;5047841;28;20028;-52
2023/04/07 02:09:20;;;;;;;2.42;2.22;;;19.00;51.80;;;;;;5048157;28;20028;-55
2023/04/07 02:11:46;;;;;;;2.75;1.90;;;19.00;51.70;;;;;;5039611;28;20113;-54
2023/04/07 02:14:13;;;;;;;2.53;2.03;;;19.00;51.80;;;;;;5048174;28;20055;-54
2023/04/07 02:16:41;;;;;;;3.47;2.17;;;18.90;51.80;;;;;;5053137;28;20055;-53
2023/04/07 02:19:07;;;;;;;3.60;1.98;;;18.90;51.90;;;;;;5049904;28;20166;-54
2023/04/07 02:21:34;;;;;;;3.05;2.70;;;18.90;51.70;;;;;;5054745;28;20021;-53
2023/04/07 02:24:06;;;;;;;3.67;2.60;;;18.90;52.20;;;;;;5052966;28;20386;-50
2023/04/07 02:26:34;;;;;;;3.50;2.15;;;18.90;51.80;;;;;;5054452;28;20028;-52
2023/04/07 02:29:00;;;;;;;5.43;2.53;;;18.80;51.80;;;;;;5055384;28;20052;-52
2023/04/07 02:31:25;;;;;;;3.22;2.17;;;18.80;52.00;;;;;;5057725;28;20220;-53
2023/04/07 02:33:51;;;;;;;2.30;1.98;;;18.80;51.90;;;;;;5056638;28;20426;-53
2023/04/07 02:36:16;;;;;;;3.97;2.35;;;18.80;51.90;;;;;;5056132;28;20393;-54
2023/04/07 02:38:42;;;;;;;3.75;2.55;;;18.80;51.90;;;;;;5056849;28;20036;-55
2023/04/07 02:41:07;;;;;;;2.60;2.30;;;18.80;51.90;;;;;;5053648;28;20035;-53
2023/04/07 02:43:33;;;;;;;2.50;2.28;;;18.80;51.90;;;;;;5051048;28;20072;-52
2023/04/07 02:45:58;;;;;;;4.50;2.28;;;18.80;51.90;;;;;;5052865;28;20037;-51
2023/04/07 02:48:24;;;;;;;2.53;2.20;;;18.80;52.00;;;;;;5050817;28;20448;-52
2023/04/07 02:50:49;;;;;;;4.63;2.53;;;18.80;52.00;;;;;;5049615;28;20273;-52
2023/04/07 02:53:15;;;;;;;2.17;1.98;;;18.80;52.00;;;;;;5048385;28;20059;-50
2023/04/07 02:55:40;;;;;;;2.55;2.22;;;18.80;51.80;;;;;;5045941;28;20033;-54
2023/04/07 02:58:06;;;;;;;2.92;1.98;;;18.80;51.90;;;;;;5053480;28;20044;-54
2023/04/07 03:00:33;;;;;;;3.65;2.25;;;18.80;51.80;;;;;;5034452;28;20037;-52
2023/04/07 03:02:58;;;;;;;3.10;1.90;;;18.80;51.80;;;;;;5045298;28;20030;-50
2023/04/07 03:05:24;;;;;;;2.83;2.22;;;18.70;52.00;;;;;;5030472;28;20091;-54
2023/04/07 03:07:49;;;;;;;2.38;2.10;;;18.80;52.00;;;;;;5035388;28;20025;-50
2023/04/07 03:10:15;;;;;;;2.90;2.33;;;18.70;51.80;;;;;;5033496;28;20037;-54
2023/04/07 03:12:41;;;;;;;2.67;2.00;;;18.70;51.80;;;;;;5033967;28;20110;-51
2023/04/07 03:15:07;;;;;;;2.85;2.15;;;18.70;51.90;;;;;;5027918;28;20043;-53
2023/04/07 03:17:33;;;;;;;3.15;2.47;;;18.70;51.80;;;;;;5058275;28;20040;-54
2023/04/07 03:19:58;;;;;;;2.40;2.03;;;18.70;51.90;;;;;;5027476;28;20110;-55
2023/04/07 03:22:24;;;;;;;3.05;2.28;;;18.70;52.60;;;;;;5030576;28;20434;-52
2023/04/07 03:24:49;;;;;;;3.25;2.35;;;18.70;51.90;;;;;;5028032;28;20021;-52
2023/04/07 03:27:16;;;;;;;3.30;2.50;;;18.70;51.80;;;;;;5032612;28;20033;-54
2023/04/07 03:29:41;;;;;;;3.45;2.20;;;18.70;51.90;;;;;;5025360;28;20125;-54
2023/04/07 03:32:07;;;;;;;2.47;2.28;;;18.70;52.00;;;;;;5031245;28;20021;-53
2023/04/07 03:34:33;;;;;;;2.60;2.20;;;18.70;52.00;;;;;;5028116;28;20046;-55
2023/04/07 03:36:59;;;;;;;3.42;2.45;;;18.70;51.80;;;;;;5034594;28;20685;-55
2023/04/07 03:39:24;;;;;;;2.10;1.90;;;18.80;52.00;;;;;;5030084;28;20071;-53
2023/04/07 03:41:50;;;;;;;4.60;2.53;;;18.70;51.80;;;;;;5032150;28;20037;-54
2023/04/07 03:44:16;;;;;;;2.50;2.30;;;18.70;51.90;;;;;;5029121;28;20040;-53
2023/04/07 03:46:41;;;;;;;3.38;2.13;;;18.70;51.70;;;;;;5029059;28;20483;-53
2023/04/07 03:49:07;;;;;;;2.55;2.20;;;18.70;51.80;;;;;;5030155;28;20017;-52
2023/04/07 03:51:33;;;;;;;2.60;2.08;;;18.70;51.90;;;;;;5027746;28;20128;-53
2023/04/07 03:53:58;;;;;;;2.78;2.35;;;18.70;51.60;;;;;;5024528;28;20040;-54
2023/04/07 03:56:24;;;;;;;3.40;2.10;;;18.70;52.00;;;;;;5029965;28;20037;-53
2023/04/07 03:58:49;;;;;;;4.63;1.98;;;18.70;51.80;;;;;;5030430;28;20030;-56
2023/04/07 04:01:15;;;;;;;3.67;2.05;;;18.70;51.80;;;;;;5035566;28;21742;-51
2023/04/07 04:03:41;;;;;;;2.97;2.25;;;18.70;51.60;;;;;;5037461;28;20048;-54
2023/04/07 04:06:07;;;;;;;3.88;2.10;;;18.80;51.90;;;;;;5031630;28;20029;-53
2023/04/07 04:08:32;;;;;;;2.40;1.90;;;18.80;51.80;;;;;;5035789;28;20041;-50
2023/04/07 04:10:58;;;;;;;2.28;2.00;;;18.80;51.70;;;;;;5035105;28;20038;-53
2023/04/07 04:13:23;;;;;;;2.85;2.05;;;18.80;51.80;;;;;;5034552;28;20034;-53
2023/04/07 04:15:49;;;;;;;4.57;1.92;;;18.80;51.60;;;;;;5031279;28;20108;-50
2023/04/07 04:18:14;;;;;;;2.28;1.90;;;18.80;51.80;;;;;;5036340;28;20037;-54
2023/04/07 04:20:40;;;;;;;2.67;2.05;;;18.80;51.70;;;;;;5032411;28;20044;-50
2023/04/07 04:23:06;;;;;;;3.60;2.20;;;18.80;51.70;;;;;;5036609;28;20040;-60
2023/04/07 04:25:31;;;;;;;2.92;2.33;;;18.80;51.70;;;;;;5028120;28;20029;-52
2023/04/07 04:27:57;;;;;;;2.25;1.85;;;18.80;51.50;;;;;;5030829;28;20360;-53
2023/04/07 04:30:22;;;;;;;3.65;2.70;;;18.80;51.50;;;;;;5031227;28;20508;-53
2023/04/07 04:32:48;;;;;;;3.05;1.80;;;18.80;51.50;;;;;;5035876;28;20029;-53
2023/04/07 04:35:14;;;;;;;2.55;2.10;;;18.80;51.50;;;;;;5033389;28;20051;-55
2023/04/07 04:37:40;;;;;;;2.58;1.58;;;18.80;51.40;;;;;;5036802;28;20029;-51
2023/04/07 04:40:07;;;;;;;3.15;2.15;;;18.80;51.50;;;;;;5036610;28;20509;-51
2023/04/07 04:42:33;;;;;;;3.35;2.70;;;18.80;51.40;;;;;;5051319;28;20033;-52
2023/04/07 04:44:59;;;;;;;2.45;1.95;;;18.80;51.30;;;;;;5043439;28;20033;-55
2023/04/07 04:47:24;;;;;;;2.75;2.20;;;18.80;51.30;;;;;;5030505;28;20033;-53
2023/04/07 04:49:50;;;;;;;2.13;1.73;;;18.80;51.40;;;;;;5033210;28;20036;-52
2023/04/07 04:52:16;;;;;;;3.35;2.30;;;18.80;51.90;;;;;;5031593;28;20517;-50
2023/04/07 04:54:41;;;;;;;2.53;1.75;;;18.80;51.30;;;;;;5029380;28;20042;-53
2023/04/07 04:57:07;;;;;;;2.55;2.10;;;18.80;51.30;;;;;;5037256;28;20025;-54
2023/04/07 04:59:33;;;;;;;2.60;1.80;;;18.80;51.20;;;;;;5037983;28;20036;-52
2023/04/07 05:01:58;;;;;;;2.00;1.80;;;18.90;51.30;;;;;;5030862;28;20112;-52
2023/04/07 05:04:24;;;;;;;2.22;1.70;;;18.90;51.20;;;;;;5035208;28;20524;-52
2023/04/07 05:06:50;;;;;;;1.95;1.60;;;18.90;51.10;;;;;;5032992;28;20658;-50
2023/04/07 05:09:16;;;;;;;3.13;1.80;;;18.90;51.30;;;;;;5034038;28;20084;-51
2023/04/07 05:11:42;;;;;;;2.22;1.67;;;18.90;51.20;;;;;;5041563;28;20047;-53
2023/04/07 05:14:07;;;;;;;1.95;1.60;;;18.90;51.10;;;;;;5043524;28;20113;-54
2023/04/07 05:16:33;;;;;;;3.20;1.98;;;18.90;51.20;;;;;;5042166;28;20108;-53
2023/04/07 05:18:59;;;;;;;2.20;2.00;;;18.90;51.20;;;;;;5034382;28;20083;-52
2023/04/07 05:21:25;;;;;;;2.53;1.75;;;18.90;51.50;;;;;;5043645;28;20037;-52
2023/04/07 05:23:52;;;;;;;2.17;1.77;;;18.90;51.00;;;;;;5044721;28;20033;-50
2023/04/07 05:26:17;;;;;;;1.65;1.50;;;18.90;51.10;;;;;;5042071;28;20041;-51
2023/04/07 05:28:43;;;;;;;2.40;1.58;;;18.90;51.10;;;;;;5033025;28;20486;-54
2023/04/07 05:31:08;;;;;;;2.72;1.60;;;18.90;51.10;;;;;;5034566;28;20795;-53
2023/04/07 05:33:34;;;;;;;2.15;1.80;;;18.90;51.10;;;;;;5032685;28;20225;-52
2023/04/07 05:35:59;;;;;;;2.58;1.60;;;18.90;51.10;;;;;;5035393;28;20029;-55
2023/04/07 05:38:25;;;;;;;2.45;1.92;;;18.90;51.00;;;;;;5031465;28;20108;-51
2023/04/07 05:40:50;;;;;;;1.90;1.55;;;18.90;51.10;;;;;;5035436;28;20560;-54
2023/04/07 05:43:16;;;;;;;2.20;1.98;;;19.00;51.20;;;;;;5027574;28;20037;-52
2023/04/07 05:45:41;;;;;;;1.83;1.60;;;18.90;50.90;;;;;;5035626;28;20394;-51
2023/04/07 05:48:07;;;;;;;2.08;1.60;;;19.00;51.60;;;;;;5028747;28;20052;-56
2023/04/07 05:50:32;;;;;;;2.03;1.60;;;19.00;50.90;;;;;;5029987;28;20029;-50
2023/04/07 05:52:58;;;;;;;2.40;1.70;;;19.00;51.10;;;;;;5031146;28;20163;-51
2023/04/07 05:55:23;;;;;;;2.90;1.83;;;19.00;50.90;;;;;;5042634;28;20040;-53
2023/04/07 05:57:49;;;;;;;1.70;1.40;;;19.00;51.00;;;;;;5039132;28;20029;-52
2023/04/07 06:00:15;;;;;;;2.58;1.90;;;19.00;51.00;;;;;;5037549;28;20029;-53
2023/04/07 06:02:40;;;;;;;1.60;1.42;;;19.00;51.00;;;;;;5053001;28;20037;-54
2023/04/07 06:05:06;;;;;;;2.45;1.95;;;19.10;51.00;;;;;;5055492;28;20036;-52
2023/04/07 06:07:32;;;;;;;2.72;2.28;;;19.00;51.10;;;;;;5053322;28;20040;-54
2023/04/07 06:09:57;;;;;;;2.05;1.70;;;19.10;51.00;;;;;;5049871;28;20486;-54
2023/04/07 06:12:23;;;;;;;3.08;1.90;;;19.10;51.10;;;;;;5054048;28;20486;-52
2023/04/07 06:14:53;;;;;;;2.13;1.77;;;19.00;50.80;;;;;;5053668;28;20036;-53
2023/04/07 06:17:18;;;;;;;1.88;1.70;;;19.10;50.90;;;;;;5052317;28;20025;-51
2023/04/07 06:19:44;;;;;;;2.63;1.60;;;19.10;51.00;;;;;;5056332;28;20147;-54
2023/04/07 06:22:10;;;;;;;1.95;1.60;;;19.10;51.00;;;;;;5051312;28;20033;-54
2023/04/07 06:24:35;;;;;;;3.45;1.65;;;19.10;51.20;;;;;;5058772;28;20042;-52
2023/04/07 06:27:02;;;;;;;2.72;1.83;;;19.10;51.20;;;;;;5056456;28;20517;-55
2023/04/07 06:29:34;;;;;;;2.47;1.27;;;19.10;51.20;;;;;;5058662;28;20460;-53
2023/04/07 06:32:00;;;;;;;2.28;1.70;;;19.10;51.20;;;;;;5055190;28;20055;-51
2023/04/07 06:34:25;;;;;;;2.50;1.65;;;19.00;51.30;;;;;;5054349;28;20118;-55
2023/04/07 06:36:51;;;;;;;3.05;1.73;;;19.10;51.40;;;;;;5052688;28;20090;-53
2023/04/07 06:39:17;;;;;;;1.45;1.30;;;19.00;51.30;;;;;;5051286;28;20089;-53
2023/04/07 06:41:42;;;;;;;2.00;1.70;;;19.10;51.30;;;;;;5051243;28;20033;-52
2023/04/07 06:44:11;;;;;;;2.47;1.67;;;19.00;51.30;;;;;;5045800;28;20441;-53
2023/04/07 06:46:37;;;;;;;2.58;2.00;;;19.00;51.30;;;;;;5053818;28;20048;-54
2023/04/07 06:49:02;;;;;;;2.95;1.90;;;19.00;51.40;;;;;;5049241;28;20025;-52
2023/04/07 06:51:28;;;;;;;2.80;2.03;;;19.00;51.50;;;;;;5051054;28;20056;-52
2023/04/07 06:53:54;;;;;;;3.83;1.45;;;19.00;52.10;;;;;;5055646;28;20078;-54
2023/04/07 06:56:19;;;;;;;2.17;1.80;;;19.00;51.60;;;;;;5057013;28;20037;-55
2023/04/07 06:58:45;;;;;;;1.60;1.50;;;19.00;51.50;;;;;;5046437;28;20214;-50
2023/04/07 07:01:11;;;;;;;3.45;1.58;;;19.00;51.50;;;;;;5034665;28;20079;-50
2023/04/07 07:03:36;;;;;;;5.40;2.08;;;19.00;51.60;;;;;;5032726;28;20026;-55
2023/04/07 07:06:02;;;;;;;5.13;1.80;;;19.10;51.80;;;;;;5054158;28;20032;-53
2023/04/07 07:08:28;;;;;;;2.20;1.55;;;19.10;51.90;;;;;;5034115;28;20029;-52
2023/04/07 07:10:54;;;;;;;4.72;2.00;;;19.10;51.90;;;;;;5031787;28;20399;-52
2023/04/07 07:13:24;;;;;;;3.17;2.30;;;19.10;51.90;;;;;;5028084;28;20033;-52
2023/04/07 07:15:50;;;;;;;4.75;1.90;;;19.20;52.00;;;;;;5035842;28;20051;-54
2023/04/07 07:18:16;;;;;;;5.25;2.75;;;19.20;52.00;;;;;;5050831;28;20140;-52
2023/04/07 07:20:42;;;;;;;6.75;2.05;;;19.20;51.90;;;;;;5050615;28;20397;-54
2023/04/07 07:23:08;;;;;;;5.70;1.50;;;19.20;51.90;;;;;;5056568;28;20112;-52
2023/04/07 07:25:33;;;;;;;6.72;1.60;;;19.20;52.10;;;;;;5055449;28;20040;-53
2023/04/07 07:27:59;;;;;;;7.93;1.75;;;19.20;52.00;;;;;;5054589;28;20029;-54
2023/04/07 07:30:25;;;;;;;8.85;2.40;;;19.20;52.00;;;;;;5059979;28;20021;-54
2023/04/07 07:32:52;;;;;;;5.75;2.00;;;19.20;52.00;;;;;;5055741;28;20049;-56
2023/04/07 07:35:18;;;;;;;3.83;1.98;;;19.20;52.10;;;;;;5054203;28;20032;-54
2023/04/07 07:37:43;;;;;;;2.78;1.65;;;19.20;52.10;;;;;;5055085;28;20059;-55
2023/04/07 07:40:10;;;;;;;4.63;1.90;;;19.20;52.10;;;;;;5055061;28;20021;-54
2023/04/07 07:42:37;;;;;;;9.27;2.00;;;19.20;52.10;;;;;;5058666;28;20036;-54
2023/04/07 07:45:02;;;;;;;4.25;2.25;;;19.20;52.10;;;;;;5058082;28;20024;-54
2023/04/07 07:47:29;;;;;;;3.47;1.70;;;19.20;52.20;;;;;;5058970;28;20036;-57
2023/04/07 07:49:54;;;;;;;6.35;2.03;;;19.20;52.10;;;;;;5056338;28;20028;-54
2023/04/07 07:52:20;;;;;;;4.28;2.00;;;19.20;52.20;;;;;;5055633;28;20079;-53
2023/04/07 07:54:47;;;;;;;2.75;1.88;;;19.20;52.20;;;;;;5034712;28;20124;-51
2023/04/07 07:57:12;;;;;;;3.95;1.73;;;19.20;52.10;;;;;;5037117;28;20021;-52
2023/04/07 07:59:39;;;;;;;4.57;1.90;;;19.20;52.10;;;;;;5035164;28;20026;-55
2023/04/07 08:02:05;;;;;;;3.15;1.98;;;19.20;52.10;;;;;;5038281;28;20378;-54
2023/04/07 08:04:31;;;;;;;6.05;2.08;;;19.20;52.10;;;;;;5035473;28;20841;-54
2023/04/07 08:06:57;;;;;;;5.68;2.25;;;19.10;52.00;;;;;;5033976;28;20107;-50
2023/04/07 08:09:23;;;;;;;3.28;1.50;;;19.10;52.00;;;;;;5034812;28;20032;-55
2023/04/07 08:11:48;;;;;;;4.13;2.05;;;19.10;52.00;;;;;;5037498;28;20035;-54
2023/04/07 08:14:14;;;;;;;6.57;2.63;;;19.10;52.00;;;;;;5032908;28;20037;-54
2023/04/07 08:16:40;;;;;;;4.38;1.90;;;19.10;52.00;;;;;;5030498;28;20270;-53
2023/04/07 08:19:05;;;;;;;3.22;1.70;;;19.10;52.00;;;;;;5034500;28;20726;-55
2023/04/07 08:21:31;;;;;;;5.47;1.77;;;19.10;52.10;;;;;;5034786;28;20037;-52
2023/04/07 08:23:57;;;;;;;4.78;2.30;;;19.10;52.10;;;;;;5035383;28;20032;-54
2023/04/07 08:26:23;;;;;;;5.55;2.40;;;19.10;52.70;;;;;;5036476;28;20487;-55
2023/04/07 08:28:52;;;;;;;3.33;2.22;;;19.10;53.30;;;;;;5038282;28;20056;-55
2023/04/07 08:31:18;;;;;;;8.23;2.55;;;19.10;53.80;;;;;;5037251;28;20111;-54
2023/04/07 08:33:44;;;;;;;4.72;1.95;;;19.10;54.00;;;;;;5063938;23;20570;-55
2023/04/07 08:36:10;;;;;;;6.07;2.20;;;19.00;54.30;;;;;;5065739;28;20048;-62
2023/04/07 08:38:35;;;;;;;4.75;2.67;;;19.00;54.60;;;;;;5035765;28;20037;-63
2023/04/07 08:41:07;;;;;;;6.55;2.40;;;19.10;54.50;;;;;;5035429;28;20037;-63
2023/04/07 08:43:35;;;;;;;10.90;2.65;;;19.00;54.60;;;;;;5043015;28;20040;-62
2023/04/07 08:46:01;;;;;;;6.43;2.50;;;19.00;54.70;;;;;;5053178;28;20082;-60
2023/04/07 08:48:33;;;;;;;10.73;3.20;;;19.00;54.90;;;;;;5038472;28;20748;-62
2023/04/07 08:51:04;;;;;;;6.38;2.10;;;19.00;54.90;;;;;;5053004;28;20040;-53
2023/04/07 08:53:42;;;;;;;7.88;2.42;;;19.00;55.80;;;;;;5056960;28;20090;-62
2023/04/07 08:56:10;;;;;;;8.48;2.35;;;18.90;55.10;;;;;;5046039;28;20098;-60
2023/04/07 08:58:36;;;;;;;5.25;2.30;;;18.90;55.00;;;;;;5042926;28;20491;-62
2023/04/07 09:01:04;;;;;;;9.85;2.67;;;18.90;54.90;;;;;;5041017;28;20071;-59
2023/04/07 09:03:31;;;;;;;12.57;2.90;;;18.90;54.70;;;;;;5041693;28;20042;-62
2023/04/07 09:05:58;;;;;;;15.43;3.28;;;18.90;54.80;;;;;;5052111;28;20060;-59
2023/04/07 09:08:23;;;;;;;10.55;3.15;;;18.90;54.90;;;;;;5055413;28;20037;-58
2023/04/07 09:10:49;;;;;;;7.90;2.78;;;18.90;54.80;;;;;;5059200;28;20041;-61
2023/04/07 09:13:14;;;;;;;9.45;3.35;;;18.90;54.90;;;;;;5040879;28;20041;-62
2023/04/07 09:15:40;;;;;;;9.20;3.22;;;18.90;55.00;;;;;;5048024;28;20048;-61
2023/04/07 09:18:06;;;;;;;7.20;3.35;;;19.00;54.90;;;;;;5040538;28;20044;-63
2023/04/07 09:21:00;;;;;;;9.65;3.50;;;19.00;54.90;;;;;;5049268;28;20123;-62
2023/04/07 09:23:31;;;;;;;18.00;4.80;;;19.10;54.80;;;;;;5059795;28;20093;-61
2023/04/07 09:25:58;;;;;;;12.90;6.00;;;19.20;54.70;;;;;;5058907;28;20040;-62
2023/04/07 09:28:24;;;;;;;14.88;5.57;;;19.30;54.90;;;;;;5056789;28;20503;-61
2023/04/07 09:30:54;;;;;;;19.42;6.50;;;19.30;54.80;;;;;;5051080;28;20052;-58
2023/04/07 09:33:29;;;;;;;15.00;6.32;;;19.40;54.70;;;;;;5052115;28;20091;-62
2023/04/07 09:35:55;;;;;;;18.65;5.60;;;19.50;54.70;;;;;;5034535;28;20044;-60
2023/04/07 09:38:21;;;;;;;17.23;6.53;;;19.60;54.50;;;;;;5043295;28;20040;-61
2023/04/07 09:40:47;;;;;;;21.55;7.18;;;19.70;54.30;;;;;;5042918;28;20037;-60
2023/04/07 09:43:17;;;;;;;14.13;5.90;;;19.80;54.30;;;;;;5038756;28;20044;-59
2023/04/07 09:45:43;;;;;;;16.25;5.65;;;19.80;53.80;;;;;;5058263;28;20043;-63
2023/04/07 09:48:19;;;;;;;20.98;6.63;;;19.70;53.80;;;;;;5058725;28;20025;-63
2023/04/07 09:50:48;;;;;;;11.75;5.45;;;19.70;53.80;;;;;;5059277;28;20040;-62
2023/04/07 09:53:15;;;;;;;10.68;5.00;;;19.70;53.70;;;;;;5057303;28;20024;-63
2023/04/07 09:55:42;;;;;;;15.38;6.35;;;19.70;53.60;;;;;;5057317;28;20410;-63
2023/04/07 09:58:11;;;;;;;11.55;4.95;;;19.80;53.70;;;;;;5053267;28;20473;-63
2023/04/07 10:00:37;;;;;;;11.23;5.50;;;19.80;53.60;;;;;;5049564;28;20048;-60
2023/04/07 10:03:04;;;;;;;8.80;4.40;;;19.70;53.60;;;;;;5037190;28;20023;-64
2023/04/07 10:05:31;;;;;;;14.13;4.90;;;19.80;53.50;;;;;;5036702;28;20037;-64
2023/04/07 10:07:56;;;;;;;11.00;4.80;;;19.80;53.60;;;;;;5060203;28;20487;-62
2023/04/07 10:10:23;;;;;;;13.55;4.53;;;19.80;53.50;;;;;;5059568;28;20044;-62
2023/04/07 10:12:52;;;;;;;15.82;4.13;;;19.70;53.50;;;;;;5057699;28;20476;-63
2023/04/07 10:15:17;;;;;;;16.50;5.13;;;19.70;53.60;;;;;;5060136;28;20047;-62
2023/04/07 10:17:48;;;;;;;11.90;4.63;;;19.70;53.60;;;;;;5057548;28;20036;-63
2023/04/07 10:20:16;;;;;;;7.30;3.72;;;19.70;53.70;;;;;;5055406;28;20553;-57
2023/04/07 10:22:43;;;;;;;7.97;4.53;;;19.70;53.70;;;;;;5056704;28;20041;-56
2023/04/07 10:25:12;;;;;;;6.72;3.85;;;19.60;53.80;;;;;;5057297;28;20029;-62
2023/04/07 10:27:50;;;;;;;6.78;3.78;;;19.60;53.80;;;;;;5047805;28;20037;-60
2023/04/07 10:30:27;;;;;;;6.55;3.15;;;19.60;53.90;;;;;;5037977;28;20127;-60
2023/04/07 10:32:54;;;;;;;9.23;3.65;;;19.60;54.00;;;;;;5035225;28;20052;-62
2023/04/07 10:35:21;;;;;;;9.32;3.80;;;19.70;53.80;;;;;;5038470;28;20029;-64
2023/04/07 10:38:05;;;;;;;11.15;3.88;;;19.80;53.70;;;;;;5040119;28;20028;-52
2023/04/07 10:40:30;;;;;;;6.50;3.60;;;19.80;53.30;;;;;;5038201;28;20030;-64
2023/04/07 10:42:57;;;;;;;10.10;4.28;;;19.80;53.20;;;;;;5042935;28;20089;-62
2023/04/07 10:45:58;;;;;;;7.00;4.43;;;19.80;53.00;;;;;;5038965;28;20086;-64
2023/04/07 10:48:27;;;;;;;9.00;4.07;;;19.90;53.00;;;;;;5058143;28;20112;-63
2023/04/07 10:51:04;;;;;;;4.25;3.50;;;19.90;53.00;;;;;;5059662;28;20468;-63
2023/04/07 10:53:30;;;;;;;6.25;4.07;;;19.80;52.80;;;;;;5056972;28;20495;-63
2023/04/07 10:55:58;;;;;;;8.30;3.58;;;19.80;52.80;;;;;;5056247;28;20714;-61
2023/04/07 10:58:29;;;;;;;8.18;4.03;;;19.80;52.80;;;;;;5057188;28;20040;-64
2023/04/07 11:01:13;;;;;;;7.85;3.97;;;19.80;52.80;;;;;;5056410;28;20294;-63
2023/04/07 11:03:52;;;;;;;7.43;3.70;;;19.80;52.80;;;;;;5060339;28;20041;-63
2023/04/07 11:06:17;;;;;;;5.18;3.40;;;19.70;52.30;;;;;;5059222;28;20082;-64
2023/04/07 11:08:45;;;;;;;10.77;3.58;;;19.70;52.60;;;;;;5058857;28;20552;-62
2023/04/07 11:11:12;;;;;;;5.43;3.10;;;19.70;52.60;;;;;;5058352;28;20098;-59
2023/04/07 11:13:42;;;;;;;5.30;3.20;;;19.70;52.50;;;;;;5061452;28;20033;-64
2023/04/07 11:16:08;;;;;;;6.53;3.13;;;19.60;52.10;;;;;;5041447;28;20067;-63
2023/04/07 11:18:35;;;;;;;6.07;3.53;;;19.60;52.00;;;;;;5051338;28;20029;-64
2023/04/07 11:21:02;;;;;;;5.25;3.70;;;19.60;52.10;;;;;;5056957;28;20059;-59
2023/04/07 11:23:28;;;;;;;5.28;3.08;;;19.60;52.20;;;;;;5057570;28;20082;-64
2023/04/07 11:26:00;;;;;;;3.10;2.80;;;19.60;51.90;;;;;;5055009;28;20047;-63
2023/04/07 11:28:26;;;;;;;4.28;3.25;;;19.50;51.90;;;;;;5057537;28;20347;-64
2023/04/07 11:30:53;;;;;;;4.13;3.03;;;19.50;51.70;;;;;;5055488;28;20090;-64
2023/04/07 11:33:21;;;;;;;4.13;2.85;;;19.50;51.70;;;;;;5053617;28;20029;-63
2023/04/07 11:35:58;;;;;;;7.47;3.28;;;19.40;51.70;;;;;;5051553;28;20408;-64
2023/04/07 11:38:26;;;;;;;3.22;2.40;;;19.40;51.60;;;;;;5053136;28;20207;-63
2023/04/07 11:40:53;;;;;;;4.88;2.75;;;19.40;51.60;;;;;;5047140;28;20494;-63
2023/04/07 11:43:26;;;;;;;4.38;3.00;;;19.40;51.40;;;;;;5057512;28;20041;-61
2023/04/07 11:46:08;;;;;;;4.28;2.97;;;19.40;51.70;;;;;;5042995;28;20037;-63
2023/04/07 11:48:35;;;;;;;5.05;2.88;;;19.40;51.40;;;;;;5048809;28;20491;-64
2023/04/07 11:51:01;;;;;;;4.78;3.00;;;19.40;51.60;;;;;;5057680;28;20037;-63
2023/04/07 11:53:31;;;;;;;2.85;2.58;;;19.40;51.10;;;;;;5056950;28;20545;-64
2023/04/07 11:56:05;;;;;;;3.00;2.58;;;19.40;51.10;;;;;;5053340;28;20565;-63
2023/04/07 11:58:31;;;;;;;3.70;2.58;;;19.40;51.50;;;;;;5047625;28;20032;-64
2023/04/07 12:01:04;;;;;;;3.40;2.63;;;19.40;51.10;;;;;;5053755;28;20051;-61
2023/04/07 12:03:30;;;;;;;3.38;2.75;;;19.30;51.20;;;;;;5056370;28;20033;-63
2023/04/07 12:05:56;;;;;;;4.47;3.25;;;19.30;51.50;;;;;;5048762;28;20063;-62
2023/04/07 12:08:36;;;;;;;3.30;2.85;;;19.30;51.10;;;;;;5052871;28;20025;-56
2023/04/07 12:11:06;;;;;;;3.67;2.17;;;19.30;50.80;;;;;;5052997;28;20051;-64
2023/04/07 12:13:32;;;;;;;3.88;2.50;;;19.30;51.00;;;;;;5036323;28;20488;-59
2023/04/07 12:15:58;;;;;;;3.22;2.70;;;19.20;50.90;;;;;;5039229;28;20045;-63
2023/04/07 12:18:24;;;;;;;4.50;2.88;;;19.20;51.00;;;;;;5042211;28;20029;-63
2023/04/07 12:20:50;;;;;;;4.38;2.80;;;19.20;50.60;;;;;;5040050;28;20032;-63
2023/04/07 12:23:15;;;;;;;4.28;2.50;;;19.30;50.80;;;;;;5040514;28;20467;-64
2023/04/07 12:25:41;;;;;;;3.38;2.60;;;19.20;50.70;;;;;;5055288;28;20036;-64
2023/04/07 12:28:06;;;;;;;4.35;3.03;;;19.20;50.60;;;;;;5061168;28;20029;-58
2023/04/07 12:30:32;;;;;;;3.70;2.83;;;19.20;50.60;;;;;;5062224;28;20055;-62
2023/04/07 12:32:57;;;;;;;3.45;2.53;;;19.20;50.40;;;;;;5061143;28;20028;-63
2023/04/07 12:35:23;;;;;;;5.50;3.00;;;19.20;50.70;;;;;;5061031;28;20477;-53
2023/04/07 12:37:48;;;;;;;5.55;2.97;;;19.20;50.80;;;;;;5062347;28;20036;-63
2023/04/07 12:40:15;;;;;;;9.05;2.60;;;19.20;51.10;;;;;;5056695;28;20029;-60
2023/04/07 12:42:41;;;;;;;8.00;2.72;;;19.20;51.50;;;;;;5039375;28;20128;-61
2023/04/07 12:45:06;;;;;;;4.78;3.03;;;19.20;52.30;;;;;;5050293;28;20232;-60
2023/04/07 12:47:32;;;;;;;5.97;3.05;;;19.20;51.90;;;;;;5059986;28;20446;-63